createdAt,value
2023-08-17T00:02:14.286Z,24.11
2023-08-17T00:04:41.693Z,24.06
2023-08-17T00:07:09.145Z,24.07
2023-08-17T00:09:36.642Z,24.08
2023-08-17T00:12:04.997Z,24.05
2023-08-17T00:14:33.644Z,24.03
2023-08-17T00:17:01.355Z,23.99
2023-08-17T00:19:28.741Z,23.97
2023-08-17T00:21:56.708Z,23.95
2023-08-17T00:24:24.168Z,23.95
2023-08-17T00:26:51.562Z,23.95
2023-08-17T00:29:19.037Z,23.94
2023-08-17T00:31:46.489Z,23.94
2023-08-17T00:34:14.244Z,23.95
2023-08-17T00:36:41.694Z,23.96
2023-08-17T00:39:09.109Z,23.95
2023-08-17T00:41:36.527Z,23.93
2023-08-17T00:44:04.167Z,23.93
2023-08-17T00:46:31.747Z,23.94
2023-08-17T00:48:59.622Z,23.95
2023-08-17T00:51:27.936Z,23.96
2023-08-17T00:53:57.457Z,23.95
2023-08-17T00:56:25.047Z,23.95
2023-08-17T00:58:52.504Z,23.94
2023-08-17T01:01:21.184Z,23.91
2023-08-17T01:03:48.650Z,23.88
2023-08-17T01:06:16.073Z,23.88
2023-08-17T01:08:44.202Z,23.87
2023-08-17T01:11:38.723Z,23.86
2023-08-17T01:14:11.072Z,23.84
2023-08-17T01:16:41.380Z,23.81
2023-08-17T01:19:10.946Z,23.79
2023-08-17T01:21:44.239Z,23.76
2023-08-17T01:24:13.427Z,23.74
2023-08-17T01:26:40.887Z,23.73
2023-08-17T01:29:08.665Z,23.71
2023-08-17T01:31:44.641Z,23.70
2023-08-17T01:34:14.549Z,23.70
2023-08-17T01:36:45.115Z,23.69
2023-08-17T01:39:12.619Z,23.69
2023-08-17T01:41:40.011Z,23.68
2023-08-17T01:44:07.520Z,23.68
2023-08-17T01:46:35.096Z,23.67
2023-08-17T01:49:02.539Z,23.66
2023-08-17T01:51:31.533Z,23.64
2023-08-17T01:53:58.975Z,23.62
2023-08-17T01:56:27.291Z,23.60
2023-08-17T01:58:54.721Z,23.59
2023-08-17T02:01:23.611Z,23.57
2023-08-17T02:03:51.023Z,23.54
2023-08-17T02:06:18.436Z,23.51
2023-08-17T02:08:46.729Z,23.48
2023-08-17T02:11:14.260Z,23.46
2023-08-17T02:13:41.663Z,23.43
2023-08-17T02:16:09.116Z,23.39
2023-08-17T02:18:36.641Z,23.35
2023-08-17T02:21:04.245Z,23.33
2023-08-17T02:23:31.640Z,23.30
2023-08-17T02:25:59.209Z,23.28
2023-08-17T02:28:26.619Z,23.26
2023-08-17T02:30:57.931Z,23.24
2023-08-17T02:33:27.752Z,23.22
2023-08-17T02:35:55.222Z,23.20
2023-08-17T02:38:22.679Z,23.18
2023-08-17T02:40:51.209Z,23.16
2023-08-17T02:43:18.698Z,23.14
2023-08-17T02:45:46.081Z,23.12
2023-08-17T02:48:13.602Z,23.10
2023-08-17T02:50:42.155Z,23.09
2023-08-17T02:53:09.914Z,23.07
2023-08-17T02:55:37.804Z,23.07
2023-08-17T02:58:05.218Z,23.08
2023-08-17T03:00:32.615Z,23.07
2023-08-17T03:03:00.172Z,23.05
2023-08-17T03:05:27.597Z,23.02
2023-08-17T03:07:56.013Z,23.02
2023-08-17T03:10:23.962Z,23.02
2023-08-17T03:12:52.332Z,23.02
2023-08-17T03:15:19.815Z,23.02
2023-08-17T03:17:47.475Z,23.02
2023-08-17T03:20:15.000Z,23.02
2023-08-17T03:22:42.452Z,23.03
2023-08-17T03:25:09.975Z,23.04
2023-08-17T03:27:37.830Z,23.03
2023-08-17T03:30:06.674Z,23.02
2023-08-17T03:32:34.135Z,23.02
2023-08-17T03:35:01.542Z,23.02
2023-08-17T03:37:29.271Z,23.03
2023-08-17T03:39:56.809Z,23.03
2023-08-17T03:42:24.245Z,23.04
2023-08-17T03:44:52.474Z,23.05
2023-08-17T03:47:20.338Z,23.06
2023-08-17T03:49:48.369Z,23.06
2023-08-17T03:52:16.159Z,23.07
2023-08-17T03:54:43.650Z,23.08
2023-08-17T03:57:11.154Z,23.08
2023-08-17T03:59:38.921Z,23.09
2023-08-17T04:02:06.350Z,23.10
2023-08-17T04:04:33.805Z,23.11
2023-08-17T04:07:01.386Z,23.12
2023-08-17T04:09:28.878Z,23.12
2023-08-17T04:11:58.585Z,23.13
2023-08-17T04:14:26.646Z,23.13
2023-08-17T04:16:54.866Z,23.15
2023-08-17T04:19:22.254Z,23.17
2023-08-17T04:21:49.666Z,23.19
2023-08-17T04:24:17.071Z,23.20
2023-08-17T04:26:44.451Z,23.23
2023-08-17T04:29:11.923Z,23.26
2023-08-17T04:31:39.677Z,23.29
2023-08-17T04:34:07.143Z,23.31
2023-08-17T04:36:34.608Z,23.34
2023-08-17T04:39:02.051Z,23.36
2023-08-17T04:41:29.492Z,23.39
2023-08-17T04:43:56.900Z,23.42
2023-08-17T04:46:24.455Z,23.45
2023-08-17T04:48:51.912Z,23.50
2023-08-17T04:51:19.334Z,23.53
2023-08-17T04:53:46.825Z,23.56
2023-08-17T04:56:14.244Z,23.58
2023-08-17T04:58:41.846Z,23.60
2023-08-17T05:01:11.574Z,23.65
2023-08-17T05:03:39.257Z,23.68
2023-08-17T05:06:06.837Z,23.68
2023-08-17T05:08:34.464Z,23.70
2023-08-17T05:11:02.040Z,23.73
2023-08-17T05:13:30.025Z,23.77
2023-08-17T05:16:00.555Z,23.79
2023-08-17T05:18:28.603Z,23.81
2023-08-17T05:20:56.091Z,23.83
2023-08-17T05:23:23.632Z,23.87
2023-08-17T05:25:51.475Z,23.91
2023-08-17T05:28:18.975Z,23.93
2023-08-17T05:30:46.576Z,23.95
2023-08-17T05:33:14.667Z,23.98
2023-08-17T05:35:43.448Z,24.00
2023-08-17T05:38:11.089Z,24.02
2023-08-17T05:40:38.549Z,24.06
2023-08-17T05:43:06.171Z,24.10
2023-08-17T05:45:38.061Z,24.13
2023-08-17T05:48:07.884Z,24.16
2023-08-17T05:50:35.964Z,24.18
2023-08-17T05:53:03.478Z,24.20
2023-08-17T05:55:30.884Z,24.22
2023-08-17T05:57:58.285Z,24.24
2023-08-17T06:00:25.941Z,24.28
2023-08-17T06:02:53.665Z,24.35
2023-08-17T06:05:26.547Z,24.41
2023-08-17T06:07:53.946Z,24.45
2023-08-17T06:10:21.799Z,24.51
2023-08-17T06:12:49.198Z,24.56
2023-08-17T06:15:16.716Z,24.62
2023-08-17T06:17:44.229Z,24.68
2023-08-17T06:20:13.300Z,24.74
2023-08-17T06:22:40.821Z,24.82
2023-08-17T06:25:09.896Z,24.92
2023-08-17T06:27:37.450Z,25.07
2023-08-17T06:30:05.283Z,25.28
2023-08-17T06:32:32.747Z,25.58
2023-08-17T06:35:00.219Z,25.98
2023-08-17T06:37:27.838Z,26.63
2023-08-17T06:39:55.635Z,27.80
2023-08-17T06:42:23.192Z,29.24
2023-08-17T06:44:50.677Z,30.55
2023-08-17T06:47:18.113Z,31.79
2023-08-17T06:49:45.500Z,33.45
2023-08-17T06:52:12.965Z,35.30
2023-08-17T06:54:41.115Z,36.85
2023-08-17T06:57:08.539Z,37.92
2023-08-17T06:59:36.184Z,39.02
2023-08-17T07:02:03.762Z,40.17
2023-08-17T07:04:32.391Z,41.37
2023-08-17T07:07:00.024Z,42.29
2023-08-17T07:09:29.224Z,43.25
2023-08-17T07:11:56.681Z,44.05
2023-08-17T07:14:24.333Z,44.72
2023-08-17T07:16:51.760Z,45.33
2023-08-17T07:21:47.120Z,46.49
2023-08-17T07:24:15.698Z,46.95
2023-08-17T07:26:43.286Z,47.43
2023-08-17T07:29:10.710Z,47.82
2023-08-17T07:31:44.161Z,48.17
2023-08-17T07:34:11.989Z,48.56
2023-08-17T07:36:39.512Z,48.88
2023-08-17T07:39:07.336Z,49.01
2023-08-17T07:41:34.719Z,49.23
2023-08-17T07:44:02.128Z,49.52
2023-08-17T07:46:29.605Z,49.77
2023-08-17T07:48:57.085Z,49.92
2023-08-17T07:51:24.590Z,49.96
2023-08-17T07:53:51.964Z,49.54
2023-08-17T07:56:19.767Z,48.69
2023-08-17T07:58:47.211Z,47.35
2023-08-17T08:01:14.746Z,45.39
2023-08-17T08:03:42.153Z,43.39
2023-08-17T08:06:09.736Z,41.54
2023-08-17T08:08:37.329Z,39.85
2023-08-17T08:11:05.704Z,38.31
2023-08-17T08:13:33.128Z,36.92
2023-08-17T08:16:00.529Z,35.78
2023-08-17T08:18:27.981Z,34.82
2023-08-17T08:20:55.467Z,34.12
2023-08-17T08:23:22.943Z,33.56
2023-08-17T08:25:50.461Z,33.01
2023-08-17T08:28:17.947Z,32.52
2023-08-17T08:30:45.446Z,32.18
2023-08-17T08:33:12.927Z,31.79
2023-08-17T08:35:40.407Z,31.47
2023-08-17T08:38:07.840Z,31.27
2023-08-17T08:40:35.259Z,31.09
2023-08-17T08:43:02.674Z,30.87
2023-08-17T08:45:30.234Z,30.69
2023-08-17T08:47:57.916Z,30.53
2023-08-17T08:50:25.394Z,30.44
2023-08-17T08:53:04.837Z,30.39
2023-08-17T08:55:36.961Z,30.20
2023-08-17T08:58:08.361Z,29.99
2023-08-17T09:00:35.744Z,29.83
2023-08-17T09:03:04.240Z,29.75
2023-08-17T09:05:32.804Z,29.69
2023-08-17T09:08:00.575Z,29.66
2023-08-17T09:10:29.354Z,29.66
2023-08-17T09:12:58.625Z,29.67
2023-08-17T09:15:26.141Z,29.65
2023-08-17T09:17:53.559Z,29.59
2023-08-17T09:20:48.279Z,29.55
2023-08-17T09:23:23.187Z,29.52
2023-08-17T09:25:53.179Z,29.47
2023-08-17T09:28:21.756Z,29.42
2023-08-17T09:31:04.898Z,29.40
2023-08-17T09:33:32.647Z,29.42
2023-08-17T09:36:00.725Z,29.44
2023-08-17T09:38:28.702Z,29.45
2023-08-17T09:40:56.386Z,29.46
2023-08-17T09:43:23.892Z,29.44
2023-08-17T09:45:51.480Z,29.38
2023-08-17T09:48:19.070Z,29.30
2023-08-17T09:50:47.734Z,29.27
2023-08-17T09:53:15.857Z,29.27
2023-08-17T09:55:44.441Z,29.27
2023-08-17T09:58:18.250Z,29.27
2023-08-17T10:00:51.672Z,29.30
2023-08-17T10:03:20.478Z,29.36
2023-08-17T10:06:01.185Z,29.41
2023-08-17T10:08:29.661Z,29.45
2023-08-17T10:10:57.166Z,29.47
2023-08-17T10:13:39.045Z,29.49
2023-08-17T10:16:31.453Z,29.49
2023-08-17T10:19:15.454Z,29.48
2023-08-17T10:21:55.476Z,29.51
2023-08-17T10:24:23.070Z,29.58
2023-08-17T10:26:54.785Z,29.61
2023-08-17T10:29:24.625Z,29.60
2023-08-17T10:31:52.515Z,29.59
2023-08-17T10:34:20.134Z,29.59
2023-08-17T10:36:47.572Z,29.58
2023-08-17T10:39:29.725Z,29.58
2023-08-17T10:41:58.575Z,29.56
2023-08-17T10:44:38.368Z,29.53
2023-08-17T10:47:25.647Z,29.52
2023-08-17T10:50:00.790Z,29.51
2023-08-17T10:52:32.973Z,29.53
2023-08-17T10:55:06.474Z,29.59
2023-08-17T10:57:34.990Z,29.61
2023-08-17T11:00:20.723Z,29.62
2023-08-17T11:03:02.930Z,29.62
2023-08-17T11:05:57.004Z,29.62
2023-08-17T11:08:30.862Z,29.58
2023-08-17T11:11:00.056Z,29.57
2023-08-17T11:13:43.361Z,29.56
2023-08-17T11:16:12.263Z,29.56
2023-08-17T11:18:42.683Z,29.59
2023-08-17T11:21:11.384Z,29.62
2023-08-17T11:23:41.368Z,29.61
2023-08-17T11:26:08.920Z,29.59
2023-08-17T11:31:12.883Z,29.56
2023-08-17T11:33:41.197Z,29.57
2023-08-17T11:36:09.681Z,29.59
2023-08-17T11:38:43.633Z,29.61
2023-08-17T11:41:18.525Z,29.64
2023-08-17T11:43:46.920Z,29.68
2023-08-17T11:46:14.615Z,29.70
2023-08-17T11:48:42.276Z,29.67
2023-08-17T11:51:09.806Z,29.67
2023-08-17T11:53:37.807Z,29.70
2023-08-17T11:56:10.636Z,29.71
2023-08-17T11:58:46.733Z,29.68
2023-08-17T12:01:14.584Z,29.64
2023-08-17T12:03:43.128Z,29.62
2023-08-17T12:06:11.465Z,29.61
2023-08-17T12:08:38.914Z,29.62
2023-08-17T12:11:06.399Z,29.67
2023-08-17T12:13:37.133Z,29.70
2023-08-17T12:16:05.173Z,29.68
2023-08-17T12:18:36.310Z,29.69
2023-08-17T12:21:04.796Z,29.74
2023-08-17T12:23:34.049Z,29.80
2023-08-17T12:26:04.654Z,29.84
2023-08-17T12:28:32.094Z,29.84
2023-08-17T12:31:01.201Z,29.83
2023-08-17T12:33:28.716Z,29.88
2023-08-17T12:35:56.551Z,29.94
2023-08-17T12:38:25.348Z,30.02
2023-08-17T12:40:54.345Z,30.07
2023-08-17T12:43:24.586Z,30.08
2023-08-17T12:45:52.623Z,30.03
2023-08-17T12:48:20.141Z,29.99
2023-08-17T12:50:47.823Z,29.96
2023-08-17T12:53:15.275Z,29.95
2023-08-17T12:55:42.988Z,29.91
2023-08-17T12:58:11.215Z,29.88
2023-08-17T13:00:38.640Z,29.87
2023-08-17T13:03:06.144Z,29.86
2023-08-17T13:05:34.218Z,29.84
2023-08-17T13:08:01.649Z,29.83
2023-08-17T13:10:29.706Z,29.82
2023-08-17T13:13:00.437Z,29.80
2023-08-17T13:26:59.111Z,30.07
2023-08-17T13:29:26.624Z,30.21
2023-08-17T13:31:54.257Z,30.18
2023-08-17T13:34:21.774Z,30.15
2023-08-17T13:36:49.278Z,30.15
2023-08-17T13:39:18.982Z,30.12
2023-08-17T13:41:46.564Z,30.05
2023-08-17T13:44:14.020Z,29.99
2023-08-17T13:46:41.516Z,29.94
2023-08-17T13:49:09.068Z,29.90
2023-08-17T13:51:36.519Z,29.86
2023-08-17T13:54:04.780Z,29.85
2023-08-17T13:56:32.307Z,29.82
2023-08-17T13:58:59.756Z,29.80
2023-08-17T14:01:27.633Z,29.76
2023-08-17T14:03:55.138Z,29.72
2023-08-17T14:06:22.793Z,29.67
2023-08-17T14:08:50.258Z,29.62
2023-08-17T14:11:17.713Z,29.58
2023-08-17T14:13:45.164Z,29.56
2023-08-17T14:16:13.102Z,29.55
2023-08-17T14:18:40.580Z,29.56
2023-08-17T14:21:08.034Z,29.55
2023-08-17T14:23:35.448Z,29.53
2023-08-17T14:26:03.441Z,29.50
2023-08-17T14:28:30.973Z,29.47
2023-08-17T14:30:58.346Z,29.45
2023-08-17T14:33:25.834Z,29.43
2023-08-17T14:35:53.271Z,29.39
2023-08-17T14:38:20.874Z,29.35
2023-08-17T14:40:49.076Z,29.32
2023-08-17T14:43:16.778Z,29.31
2023-08-17T14:45:44.379Z,29.29
2023-08-17T14:48:11.832Z,29.24
2023-08-17T14:50:39.623Z,29.18
2023-08-17T14:53:08.171Z,29.16
2023-08-17T14:55:35.751Z,29.15
2023-08-17T14:58:04.059Z,29.14
2023-08-17T15:00:33.925Z,29.13
2023-08-17T15:03:02.199Z,29.11
2023-08-17T15:05:29.961Z,29.09
2023-08-17T15:07:57.439Z,29.02
2023-08-17T15:10:25.282Z,28.96
2023-08-17T15:12:52.771Z,28.91
2023-08-17T15:15:20.985Z,28.86
2023-08-17T15:17:48.987Z,28.82
2023-08-17T15:20:16.438Z,28.78
2023-08-17T15:22:44.005Z,28.76
2023-08-17T15:25:11.435Z,28.75
2023-08-17T15:27:38.915Z,28.74
2023-08-17T15:30:08.280Z,28.71
2023-08-17T15:32:35.712Z,28.69
2023-08-17T15:35:04.066Z,28.67
2023-08-17T15:37:31.770Z,28.65
2023-08-17T15:39:59.468Z,28.61
2023-08-17T15:42:27.367Z,28.57
2023-08-17T15:44:54.874Z,28.54
2023-08-17T15:47:22.308Z,28.50
2023-08-17T15:49:49.762Z,28.47
2023-08-17T15:52:17.303Z,28.44
2023-08-17T15:54:44.690Z,28.41
2023-08-17T15:57:12.116Z,28.38
2023-08-17T15:59:42.547Z,28.34
2023-08-17T16:02:10.036Z,28.29
2023-08-17T16:04:37.528Z,28.25
2023-08-17T16:07:05.058Z,28.22
2023-08-17T16:09:32.490Z,28.19
2023-08-17T16:11:59.945Z,28.17
2023-08-17T16:14:27.520Z,28.15
2023-08-17T16:16:57.118Z,28.14
2023-08-17T16:19:25.345Z,28.11
2023-08-17T16:21:52.878Z,28.08
2023-08-17T16:24:26.466Z,28.05
2023-08-17T16:26:54.895Z,28.02
2023-08-17T16:29:22.321Z,27.98
2023-08-17T16:34:34.212Z,27.92
2023-08-17T16:37:01.824Z,27.88
2023-08-17T16:39:29.338Z,27.84
2023-08-17T16:41:57.874Z,27.80
2023-08-17T16:44:27.814Z,27.77
2023-08-17T16:46:55.913Z,27.75
2023-08-17T16:49:29.663Z,27.72
2023-08-17T16:51:59.276Z,27.69
2023-08-17T16:54:26.796Z,27.64
2023-08-17T16:56:54.550Z,27.61
2023-08-17T16:59:22.377Z,27.57
2023-08-17T17:01:50.041Z,27.54
2023-08-17T17:04:18.849Z,27.51
2023-08-17T17:06:46.645Z,27.48
2023-08-17T17:09:14.106Z,27.45
2023-08-17T17:11:41.795Z,27.42
2023-08-17T17:14:09.282Z,27.37
2023-08-17T17:16:36.733Z,27.34
2023-08-17T17:19:04.336Z,27.30
2023-08-17T17:21:31.855Z,27.26
2023-08-17T17:23:59.234Z,27.22
2023-08-17T17:26:26.632Z,27.19
2023-08-17T17:28:54.068Z,27.16
2023-08-17T17:31:21.605Z,27.12
2023-08-17T17:33:49.103Z,27.10
2023-08-17T17:36:16.538Z,27.06
2023-08-17T17:38:43.941Z,27.01
2023-08-17T17:41:11.392Z,26.98
2023-08-17T17:43:38.866Z,26.95
2023-08-17T17:46:06.292Z,26.91
2023-08-17T17:48:34.188Z,26.88
2023-08-17T17:51:01.605Z,26.84
2023-08-17T17:53:30.160Z,26.81
2023-08-17T17:55:57.636Z,26.77
2023-08-17T17:58:25.141Z,26.73
2023-08-17T18:00:54.790Z,26.71
2023-08-17T18:03:22.495Z,26.68
2023-08-17T18:05:50.013Z,26.65
2023-08-17T18:08:17.615Z,26.62
2023-08-17T18:10:45.286Z,26.60
2023-08-17T18:13:12.701Z,26.57
2023-08-17T18:15:40.349Z,26.55
2023-08-17T18:18:08.534Z,26.54
2023-08-17T18:20:36.112Z,26.52
2023-08-17T18:23:03.724Z,26.49
2023-08-17T18:25:31.270Z,26.47
2023-08-17T18:27:58.849Z,26.46
2023-08-17T18:30:26.278Z,26.43
2023-08-17T18:32:53.749Z,26.39
2023-08-17T18:35:22.243Z,26.35
2023-08-17T18:37:50.005Z,26.33
2023-08-17T18:40:20.943Z,26.30
2023-08-17T18:42:49.862Z,26.28
2023-08-17T18:45:20.635Z,26.26
2023-08-17T18:47:48.136Z,26.24
2023-08-17T18:50:16.108Z,26.22
2023-08-17T18:52:43.637Z,26.20
2023-08-17T18:55:14.050Z,26.18
2023-08-17T18:57:42.027Z,26.15
2023-08-17T19:00:12.341Z,26.12
2023-08-17T19:02:40.910Z,26.10
2023-08-17T19:05:09.196Z,26.07
2023-08-17T19:07:36.766Z,26.05
2023-08-17T19:10:04.483Z,26.02
2023-08-17T19:12:31.983Z,26.01
2023-08-17T19:14:59.404Z,25.99
2023-08-17T19:17:27.767Z,25.97
2023-08-17T19:19:55.548Z,25.95
2023-08-17T19:22:23.059Z,25.94
2023-08-17T19:24:50.491Z,25.92
2023-08-17T19:27:17.891Z,25.89
2023-08-17T19:29:45.360Z,25.85
2023-08-17T19:32:12.810Z,25.82
2023-08-17T19:34:40.236Z,25.79
2023-08-17T19:37:07.744Z,25.74
2023-08-17T19:39:35.159Z,25.70
2023-08-17T19:42:03.831Z,25.66
2023-08-17T19:44:31.236Z,25.63
2023-08-17T19:46:58.683Z,25.61
2023-08-17T19:49:26.270Z,25.60
2023-08-17T19:51:53.729Z,25.58
2023-08-17T19:54:21.723Z,25.58
2023-08-17T19:56:49.303Z,25.56
2023-08-17T19:59:16.721Z,25.54
2023-08-17T20:01:45.636Z,25.52
2023-08-17T20:04:13.071Z,25.49
2023-08-17T20:06:40.863Z,25.47
2023-08-17T20:09:08.290Z,25.46
2023-08-17T20:11:35.791Z,25.44
2023-08-17T20:14:03.281Z,25.43
2023-08-17T20:16:30.873Z,25.43
2023-08-17T20:18:58.314Z,25.43
2023-08-17T20:21:25.814Z,25.42
2023-08-17T20:23:53.311Z,25.42
2023-08-17T20:26:21.171Z,25.40
2023-08-17T20:28:48.638Z,25.39
2023-08-17T20:31:16.210Z,25.38
2023-08-17T20:33:44.121Z,25.37
2023-08-17T21:02:13.924Z,24.64
2023-08-17T21:04:41.360Z,25.19
2023-08-17T21:07:08.727Z,25.17
2023-08-17T21:09:36.091Z,25.14
2023-08-17T21:12:03.919Z,25.11
2023-08-17T21:14:31.357Z,25.10
2023-08-17T21:16:59.347Z,25.07
2023-08-17T21:19:26.763Z,25.05
2023-08-17T21:21:54.180Z,25.01
2023-08-17T21:24:21.676Z,24.99
2023-08-17T21:26:49.110Z,24.94
2023-08-17T21:29:16.530Z,24.89
2023-08-17T21:31:46.500Z,24.86
2023-08-17T21:34:16.611Z,24.83
2023-08-17T21:36:43.989Z,24.79
2023-08-17T21:39:12.438Z,24.78
2023-08-17T21:41:39.874Z,24.76
2023-08-17T21:44:07.452Z,24.76
2023-08-17T21:46:34.860Z,24.73
2023-08-17T21:49:02.304Z,24.70
2023-08-17T21:51:29.729Z,24.68
2023-08-17T21:53:59.468Z,24.64
2023-08-17T21:56:26.841Z,24.63
2023-08-17T21:58:54.223Z,24.63
2023-08-17T22:01:21.654Z,24.63
2023-08-17T22:03:49.150Z,24.62
2023-08-17T22:06:16.669Z,24.60
2023-08-17T22:08:44.088Z,24.57
2023-08-17T22:11:11.519Z,24.52
2023-08-17T22:13:39.163Z,24.49
2023-08-17T22:16:06.675Z,24.50
2023-08-17T22:18:34.061Z,24.48
2023-08-17T22:21:05.286Z,24.46
2023-08-17T22:23:32.850Z,24.46
2023-08-17T22:26:00.308Z,24.45
2023-08-17T22:28:28.536Z,24.44
2023-08-17T22:31:09.244Z,24.42
2023-08-17T22:33:36.878Z,24.43
2023-08-17T22:36:04.486Z,24.44
2023-08-17T22:38:31.872Z,24.45
2023-08-17T22:40:59.301Z,24.43
2023-08-17T22:43:26.690Z,24.41
2023-08-17T22:45:54.161Z,24.37
2023-08-17T22:48:21.603Z,24.36
2023-08-17T22:50:49.084Z,24.35
2023-08-17T22:53:16.536Z,24.33
2023-08-17T22:55:43.954Z,24.32
2023-08-17T22:58:11.333Z,24.30
2023-08-17T23:00:38.731Z,24.27
2023-08-17T23:03:06.230Z,24.22
2023-08-17T23:05:34.591Z,24.18
2023-08-17T23:08:02.522Z,24.17
2023-08-17T23:10:29.988Z,24.14
2023-08-17T23:12:57.454Z,24.12
2023-08-17T23:15:24.966Z,24.11
2023-08-17T23:17:52.519Z,24.09
2023-08-17T23:20:20.162Z,24.10
2023-08-17T23:22:47.803Z,24.10
2023-08-17T23:25:15.305Z,24.12
2023-08-17T23:27:42.764Z,24.12
2023-08-17T23:30:11.482Z,24.11
2023-08-17T23:32:38.992Z,24.10
2023-08-17T23:35:07.352Z,24.10
2023-08-17T23:37:34.857Z,24.10
2023-08-17T23:40:02.306Z,24.09
2023-08-17T23:42:29.799Z,24.09
2023-08-17T23:44:57.538Z,24.06
2023-08-17T23:47:24.993Z,24.05
2023-08-17T23:49:52.444Z,24.05
2023-08-17T23:52:19.885Z,24.03
2023-08-17T23:54:47.670Z,24.03
2023-08-17T23:57:15.092Z,24.03
2023-08-17T23:59:42.475Z,24.03
